Time;durP1;ratioP1;P1;durP2;ratioP2;P2;SDS_P1;SDS_P2;PMS_P1;PMS_P2;Temp;Humidity;BMP_temperature;BMP_pressure;BME280_temperature;BME280_humidity;BME280_pressure;Samples;Min_cycle;Max_cycle;Signal;HPM_P1;HPM_P2
2021/03/06 00:00:33;;;;;;;10.07;5.63;;;0.10;99.90;;;;;;5025973;28;20205;-79
2021/03/06 00:03:00;;;;;;;8.83;4.50;;;0.10;99.90;;;;;;5041007;28;20202;-79
2021/03/06 00:05:27;;;;;;;7.13;4.80;;;0.10;99.90;;;;;;5046144;28;20298;-80
2021/03/06 00:07:55;;;;;;;7.30;4.40;;;0.10;99.90;;;;;;5044805;28;20263;-78
2021/03/06 00:10:22;;;;;;;7.70;4.40;;;0.10;99.90;;;;;;5046174;28;20198;-79
2021/03/06 00:12:49;;;;;;;10.43;4.70;;;0.00;99.90;;;;;;5046484;28;20281;-80
2021/03/06 00:15:18;;;;;;;8.40;3.87;;;0.00;99.90;;;;;;5046516;28;20240;-79
2021/03/06 00:17:45;;;;;;;9.70;5.10;;;0.00;99.90;;;;;;5030537;28;20206;-79
2021/03/06 00:20:11;;;;;;;7.37;4.70;;;0.00;99.90;;;;;;5026168;28;20238;-79
2021/03/06 00:22:38;;;;;;;8.67;4.50;;;-0.10;99.90;;;;;;5026280;28;20210;-80
2021/03/06 00:25:07;;;;;;;10.27;4.87;;;-0.10;99.90;;;;;;5026521;28;20257;-80
2021/03/06 00:27:34;;;;;;;6.70;4.23;;;-0.10;99.90;;;;;;5026724;28;20214;-79
2021/03/06 00:30:01;;;;;;;10.07;4.90;;;-0.10;99.90;;;;;;5026382;28;20533;-80
2021/03/06 00:32:27;;;;;;;9.20;4.73;;;-0.10;99.90;;;;;;5025377;28;20230;-80
2021/03/06 00:34:53;;;;;;;7.70;3.90;;;-0.10;99.90;;;;;;5027007;28;20206;-79
2021/03/06 00:37:20;;;;;;;6.90;3.67;;;-0.20;99.90;;;;;;5026722;28;20195;-80
2021/03/06 00:39:46;;;;;;;4.87;3.20;;;-0.20;99.90;;;;;;5026757;28;20206;-81
2021/03/06 00:42:13;;;;;;;7.80;4.03;;;-0.20;99.90;;;;;;5026903;28;20213;-79
2021/03/06 00:44:40;;;;;;;6.63;3.20;;;-0.20;99.90;;;;;;5029985;28;20264;-79
2021/03/06 00:47:06;;;;;;;7.40;3.67;;;-0.20;99.90;;;;;;5046003;28;20210;-80
2021/03/06 00:49:32;;;;;;;7.23;3.47;;;-0.20;99.90;;;;;;5045519;28;20225;-80
2021/03/06 00:51:58;;;;;;;4.77;3.20;;;-0.30;99.90;;;;;;5046049;28;20248;-80
2021/03/06 00:54:25;;;;;;;4.27;3.40;;;-0.30;99.90;;;;;;5044599;28;20210;-80
2021/03/06 00:56:51;;;;;;;7.37;3.17;;;-0.30;99.90;;;;;;5035985;28;20268;-80
2021/03/06 00:59:18;;;;;;;6.87;3.90;;;-0.30;99.90;;;;;;5024600;28;20214;-80
2021/03/06 01:01:45;;;;;;;6.43;3.23;;;-0.30;99.90;;;;;;5024780;28;20218;-79
2021/03/06 01:04:12;;;;;;;5.47;3.23;;;-0.30;99.90;;;;;;5023964;28;20732;-81
2021/03/06 01:06:38;;;;;;;4.60;2.90;;;-0.30;99.90;;;;;;5024948;28;20202;-80
2021/03/06 01:09:05;;;;;;;6.17;3.23;;;-0.40;99.90;;;;;;5024515;28;20211;-80
2021/03/06 01:11:32;;;;;;;5.53;3.20;;;-0.40;99.90;;;;;;5023271;28;20234;-81
2021/03/06 01:13:58;;;;;;;6.40;3.20;;;-0.40;99.90;;;;;;5025591;28;20237;-81
2021/03/06 01:16:25;;;;;;;4.00;3.07;;;-0.40;99.90;;;;;;5035944;28;20248;-80
2021/03/06 01:18:52;;;;;;;4.97;3.50;;;-0.40;99.90;;;;;;5045677;28;20194;-80
2021/03/06 01:21:18;;;;;;;5.67;2.87;;;-0.40;99.90;;;;;;5045210;28;20205;-80
2021/03/06 01:23:45;;;;;;;7.27;3.60;;;-0.40;99.90;;;;;;5034766;28;20198;-80
2021/03/06 01:26:11;;;;;;;6.50;3.47;;;-0.40;99.90;;;;;;5025621;28;20198;-81
2021/03/06 01:28:37;;;;;;;6.67;4.00;;;-0.40;99.90;;;;;;5025331;28;20233;-80
2021/03/06 01:31:03;;;;;;;8.73;4.87;;;-0.50;99.90;;;;;;5040372;28;20222;-81
2021/03/06 01:33:31;;;;;;;10.23;5.20;;;-0.40;99.90;;;;;;5045868;28;20198;-80
2021/03/06 01:35:57;;;;;;;9.40;4.50;;;-0.40;99.90;;;;;;5046657;28;20783;-81
2021/03/06 01:38:23;;;;;;;7.90;4.50;;;-0.40;99.90;;;;;;5045706;28;20210;-80
2021/03/06 01:40:50;;;;;;;11.57;4.77;;;-0.30;99.90;;;;;;5047044;28;20194;-79
2021/03/06 01:43:17;;;;;;;10.90;4.27;;;-0.20;99.90;;;;;;5029941;28;20218;-81
2021/03/06 01:45:44;;;;;;;10.83;3.83;;;-0.30;99.90;;;;;;5038136;28;20197;-80
2021/03/06 01:48:11;;;;;;;7.73;4.33;;;-0.30;99.90;;;;;;5045630;28;20508;-82
2021/03/06 01:50:39;;;;;;;8.30;4.10;;;-0.40;99.90;;;;;;5046280;28;20234;-81
2021/03/06 01:53:08;;;;;;;8.77;4.07;;;-0.40;99.90;;;;;;5046480;28;20206;-83
2021/03/06 01:55:38;;;;;;;5.07;3.53;;;-0.40;99.90;;;;;;5046541;28;20548;-80
2021/03/06 01:58:05;;;;;;;6.57;3.27;;;-0.50;99.90;;;;;;5046969;28;20202;-82
2021/03/06 02:00:32;;;;;;;5.07;3.40;;;-0.50;99.90;;;;;;5045934;28;20252;-81
2021/03/06 02:02:59;;;;;;;7.37;3.70;;;-0.50;99.90;;;;;;5045716;28;20541;-81
2021/03/06 02:05:26;;;;;;;6.17;3.37;;;-0.60;99.90;;;;;;5045571;28;20252;-81
2021/03/06 02:07:54;;;;;;;6.93;3.33;;;-0.60;99.90;;;;;;5046621;28;20201;-82
2021/03/06 02:10:25;;;;;;;6.33;3.60;;;-0.60;99.90;;;;;;5046216;28;20202;-80
2021/03/06 02:12:59;;;;;;;7.87;3.90;;;-0.60;99.90;;;;;;5046340;28;20217;-82
2021/03/06 02:15:38;;;;;;;8.63;4.07;;;-0.60;99.90;;;;;;5046109;28;20286;-77
2021/03/06 02:18:09;;;;;;;7.10;4.17;;;-0.60;99.90;;;;;;5046419;28;20194;-82
2021/03/06 02:20:58;;;;;;;6.17;3.50;;;-0.70;99.90;;;;;;5046821;28;20201;-82
2021/03/06 02:23:59;;;;;;;6.47;3.60;;;-0.70;99.90;;;;;;5026508;28;20256;-80
2021/03/06 02:26:33;;;;;;;6.67;3.73;;;-0.70;99.90;;;;;;5026226;28;20206;-78
2021/03/06 02:29:20;;;;;;;5.73;3.97;;;-0.70;99.90;;;;;;5027320;28;20312;-80
2021/03/06 02:31:51;;;;;;;8.73;3.97;;;-0.80;99.90;;;;;;5026009;28;20226;-82
2021/03/06 02:34:23;;;;;;;5.30;3.27;;;-0.80;99.90;;;;;;5026726;28;20237;-81
2021/03/06 02:36:56;;;;;;;7.33;3.30;;;-0.80;99.90;;;;;;5026379;28;20252;-80
2021/03/06 02:39:25;;;;;;;5.77;3.40;;;-0.80;99.90;;;;;;5026155;28;20726;-80
2021/03/06 02:41:53;;;;;;;5.50;3.73;;;-0.80;99.90;;;;;;5025702;28;20234;-80
2021/03/06 02:44:22;;;;;;;8.13;4.13;;;-0.90;99.90;;;;;;5026440;28;20241;-83
2021/03/06 02:46:48;;;;;;;7.17;4.53;;;-0.90;99.90;;;;;;5038260;28;20217;-78
2021/03/06 02:49:15;;;;;;;6.70;3.73;;;-0.90;99.90;;;;;;5045716;28;20227;-79
2021/03/06 02:51:42;;;;;;;6.53;3.20;;;-0.90;99.90;;;;;;5041437;28;20829;-81
2021/03/06 02:54:10;;;;;;;7.23;3.30;;;-0.90;99.90;;;;;;5026885;28;20238;-81
2021/03/06 02:56:38;;;;;;;5.07;3.30;;;-0.90;99.90;;;;;;5026411;28;20249;-82
2021/03/06 02:59:17;;;;;;;5.83;3.63;;;-0.90;99.90;;;;;;5025986;28;20214;-78
2021/03/06 03:01:54;;;;;;;8.90;4.17;;;-1.00;99.90;;;;;;5026679;28;20198;-82
2021/03/06 03:04:32;;;;;;;6.77;4.20;;;-1.00;99.90;;;;;;5046085;28;20271;-81
2021/03/06 03:07:06;;;;;;;6.47;3.70;;;-1.00;99.90;;;;;;5031967;28;20210;-83
2021/03/06 03:09:35;;;;;;;6.53;3.40;;;-1.00;99.90;;;;;;5026806;28;20565;-81
2021/03/06 03:12:06;;;;;;;7.47;3.53;;;-1.00;99.90;;;;;;5028023;28;20231;-82
2021/03/06 03:14:35;;;;;;;7.47;3.30;;;-1.00;99.90;;;;;;5028291;28;20210;-81
2021/03/06 03:17:10;;;;;;;7.97;3.83;;;-1.00;99.90;;;;;;5029059;28;20198;-81
2021/03/06 03:19:42;;;;;;;5.70;3.40;;;-1.10;99.90;;;;;;5031232;28;20225;-83
2021/03/06 03:22:10;;;;;;;6.50;3.67;;;-1.10;99.90;;;;;;5031637;28;20191;-83
2021/03/06 03:24:38;;;;;;;6.07;3.70;;;-1.10;99.90;;;;;;5030953;28;20272;-80
2021/03/06 03:27:07;;;;;;;8.97;3.93;;;-1.10;99.90;;;;;;5030866;28;20619;-82
2021/03/06 03:29:35;;;;;;;6.03;3.87;;;-1.10;99.90;;;;;;5030762;28;20207;-79
2021/03/06 03:32:05;;;;;;;5.87;3.43;;;-1.10;99.90;;;;;;5029926;28;20226;-83
2021/03/06 03:34:34;;;;;;;4.53;2.70;;;-1.20;99.90;;;;;;5027184;28;20198;-82
2021/03/06 03:37:01;;;;;;;7.07;3.47;;;-1.20;99.90;;;;;;5030786;28;20195;-83
2021/03/06 03:39:27;;;;;;;4.30;3.27;;;-1.20;99.90;;;;;;5050079;28;20206;-82
2021/03/06 03:41:53;;;;;;;4.70;3.07;;;-1.20;99.90;;;;;;5052258;28;20205;-83
2021/03/06 03:44:20;;;;;;;5.17;3.20;;;-1.20;99.90;;;;;;5051079;28;20213;-78
2021/03/06 03:46:47;;;;;;;8.00;3.33;;;-1.20;99.90;;;;;;5050559;28;20220;-81
2021/03/06 03:49:18;;;;;;;4.37;2.93;;;-1.20;99.90;;;;;;5050452;28;20221;-81
2021/03/06 03:51:45;;;;;;;4.10;3.20;;;-1.20;99.90;;;;;;5047965;28;20626;-84
2021/03/06 03:54:13;;;;;;;6.63;2.90;;;-1.30;99.90;;;;;;5050809;28;20217;-76
2021/03/06 03:56:40;;;;;;;4.70;2.90;;;-1.30;99.90;;;;;;5050307;28;20194;-84
2021/03/06 03:59:06;;;;;;;4.20;3.23;;;-1.30;99.90;;;;;;5049251;28;20274;-83
2021/03/06 04:01:43;;;;;;;4.37;3.00;;;-1.30;99.90;;;;;;5050447;28;20604;-84
2021/03/06 04:04:20;;;;;;;5.43;2.87;;;-1.30;99.90;;;;;;5050713;28;20194;-83
2021/03/06 04:06:47;;;;;;;6.60;3.30;;;-1.30;99.90;;;;;;5048997;28;20216;-77
2021/03/06 04:09:13;;;;;;;4.03;2.70;;;-1.30;99.90;;;;;;5050605;28;20205;-83
2021/03/06 04:11:40;;;;;;;6.63;3.30;;;-1.40;99.90;;;;;;5029873;28;20233;-81
2021/03/06 04:14:06;;;;;;;6.53;3.00;;;-1.40;99.90;;;;;;5029617;28;20218;-76
2021/03/06 04:16:32;;;;;;;5.67;2.90;;;-1.40;99.90;;;;;;5028740;28;20234;-82
2021/03/06 04:18:58;;;;;;;7.13;3.23;;;-1.40;99.90;;;;;;5029802;28;20199;-83
2021/03/06 04:21:25;;;;;;;4.40;3.23;;;-1.40;99.90;;;;;;5029326;28;20203;-78
2021/03/06 04:23:52;;;;;;;4.57;3.37;;;-1.40;99.90;;;;;;5027482;28;20207;-83
2021/03/06 04:26:19;;;;;;;5.83;2.80;;;-1.50;99.90;;;;;;5029438;28;20205;-82
2021/03/06 04:28:45;;;;;;;5.13;3.20;;;-1.40;99.90;;;;;;5049136;28;20208;-84
2021/03/06 04:31:11;;;;;;;4.43;3.20;;;-1.40;99.90;;;;;;5048855;28;20249;-85
2021/03/06 04:33:38;;;;;;;4.73;2.90;;;-1.50;99.90;;;;;;5048128;28;20216;-84
2021/03/06 04:36:04;;;;;;;5.87;3.13;;;-1.50;99.90;;;;;;5049682;28;20212;-79
2021/03/06 04:38:31;;;;;;;6.17;2.87;;;-1.50;99.90;;;;;;5048353;28;20861;-84
2021/03/06 04:40:58;;;;;;;4.93;3.00;;;-1.50;99.90;;;;;;5047745;28;20511;-84
2021/03/06 04:43:24;;;;;;;8.63;3.30;;;-1.50;99.90;;;;;;5031477;28;20238;-83
2021/03/06 04:45:50;;;;;;;7.00;3.57;;;-1.50;99.90;;;;;;5028333;28;20613;-81
2021/03/06 04:48:16;;;;;;;5.47;2.90;;;-1.50;99.90;;;;;;5028085;28;20850;-85
2021/03/06 04:50:43;;;;;;;5.13;3.40;;;-1.50;99.90;;;;;;5029342;28;20281;-84
2021/03/06 04:53:09;;;;;;;9.23;3.27;;;-1.50;99.90;;;;;;5031450;28;20202;-82
2021/03/06 04:55:35;;;;;;;5.00;3.30;;;-1.60;99.90;;;;;;5048337;28;20209;-84
2021/03/06 04:58:03;;;;;;;9.23;3.13;;;-1.60;99.90;;;;;;5047216;28;20217;-81
2021/03/06 05:00:31;;;;;;;5.50;2.93;;;-1.60;99.90;;;;;;5047906;28;20297;-84
2021/03/06 05:02:57;;;;;;;7.90;3.27;;;-1.60;99.90;;;;;;5027598;28;20202;-79
2021/03/06 05:05:24;;;;;;;4.37;3.10;;;-1.60;99.90;;;;;;5027114;28;20237;-79
2021/03/06 05:07:50;;;;;;;3.67;2.53;;;-1.60;99.90;;;;;;5026928;28;20223;-83
2021/03/06 05:10:19;;;;;;;3.60;2.90;;;-1.60;99.90;;;;;;5027871;28;20191;-84
2021/03/06 05:12:45;;;;;;;8.70;3.10;;;-1.60;99.90;;;;;;5042935;28;20226;-86
2021/03/06 05:15:13;;;;;;;5.73;3.03;;;-1.60;99.90;;;;;;5031315;28;20722;-81
2021/03/06 05:17:40;;;;;;;4.60;3.03;;;-1.70;99.90;;;;;;5026514;28;20269;-81
2021/03/06 05:20:07;;;;;;;4.90;2.83;;;-1.70;99.90;;;;;;5031018;28;20213;-83
2021/03/06 05:22:34;;;;;;;7.40;3.13;;;-1.70;99.90;;;;;;5044861;28;20900;-78
2021/03/06 05:25:00;;;;;;;7.37;3.50;;;-1.70;99.90;;;;;;5046183;28;20210;-82
2021/03/06 05:27:26;;;;;;;7.00;3.37;;;-1.70;99.90;;;;;;5045236;28;20263;-79
2021/03/06 05:29:53;;;;;;;5.23;3.10;;;-1.70;99.90;;;;;;5038101;28;20202;-84
2021/03/06 05:32:20;;;;;;;7.43;3.33;;;-1.70;99.90;;;;;;5026676;28;20658;-83
2021/03/06 05:34:47;;;;;;;5.57;2.93;;;-1.70;99.90;;;;;;5050024;22;20255;-85
2021/03/06 05:37:13;;;;;;;4.87;2.97;;;-1.70;99.90;;;;;;5065710;28;20206;-81
2021/03/06 05:39:40;;;;;;;9.00;3.00;;;-1.70;99.90;;;;;;5060575;28;20233;-82
2021/03/06 05:42:09;;;;;;;4.93;2.83;;;-1.70;99.90;;;;;;5045070;28;20193;-84
2021/03/06 05:44:35;;;;;;;5.47;3.27;;;-1.70;99.90;;;;;;5049662;28;20201;-83
2021/03/06 05:47:02;;;;;;;9.87;3.90;;;-1.70;99.90;;;;;;5053351;28;20206;-82
2021/03/06 05:49:30;;;;;;;7.37;3.20;;;-1.70;99.90;;;;;;5046116;28;20677;-84
2021/03/06 05:51:58;;;;;;;4.83;3.43;;;-1.70;99.90;;;;;;5047355;28;20221;-82
2021/03/06 05:54:27;;;;;;;6.40;3.10;;;-1.70;99.90;;;;;;5047917;28;20224;-83
2021/03/06 05:56:54;;;;;;;3.87;3.33;;;-1.80;99.90;;;;;;5046545;28;20213;-83
2021/03/06 05:59:22;;;;;;;6.43;3.60;;;-1.80;99.90;;;;;;5046519;28;20207;-81
2021/03/06 06:01:49;;;;;;;6.67;3.40;;;-1.80;99.90;;;;;;5047018;28;20256;-80
2021/03/06 06:04:17;;;;;;;5.40;3.70;;;-1.80;99.90;;;;;;5065212;28;20205;-81
2021/03/06 06:06:44;;;;;;;4.97;3.30;;;-1.80;99.90;;;;;;5067462;28;20192;-82
2021/03/06 06:09:11;;;;;;;4.97;3.07;;;-1.80;99.90;;;;;;5067581;28;20202;-85
2021/03/06 06:11:37;;;;;;;7.03;3.67;;;-1.80;99.90;;;;;;5065160;28;20255;-82
2021/03/06 06:14:05;;;;;;;7.33;3.50;;;-1.80;99.90;;;;;;5067413;28;20205;-84
2021/03/06 06:16:33;;;;;;;5.70;3.33;;;-1.80;99.90;;;;;;5066502;28;20221;-82
2021/03/06 06:19:01;;;;;;;5.57;3.63;;;-1.80;99.90;;;;;;5064666;28;20215;-84
2021/03/06 06:21:45;;;;;;;9.03;3.87;;;-1.80;99.90;;;;;;5060318;28;20210;-81
2021/03/06 06:24:13;;;;;;;6.20;3.53;;;-1.80;99.90;;;;;;5042741;28;20209;-80
2021/03/06 06:26:41;;;;;;;5.10;3.10;;;-1.80;99.90;;;;;;5042093;28;20892;-85
2021/03/06 06:29:07;;;;;;;5.93;3.10;;;-1.80;99.90;;;;;;5042753;28;20206;-80
2021/03/06 06:31:34;;;;;;;8.90;3.83;;;-1.80;99.90;;;;;;5045846;28;20236;-79
2021/03/06 06:34:00;;;;;;;5.40;3.50;;;-1.70;99.90;;;;;;5054281;28;20208;-83
2021/03/06 06:36:34;;;;;;;8.67;3.50;;;-1.70;99.90;;;;;;5086586;28;20253;-84
2021/03/06 06:39:03;;;;;;;7.43;3.87;;;-1.70;99.90;;;;;;5086015;28;20192;-80
2021/03/06 06:41:55;;;;;;;10.47;4.13;;;-1.70;99.90;;;;;;5085022;28;20586;-82
2021/03/06 06:44:22;;;;;;;13.63;5.27;;;-1.70;99.90;;;;;;5055536;28;20224;-79
2021/03/06 06:46:50;;;;;;;8.57;3.93;;;-1.60;99.90;;;;;;5066432;28;20212;-83
2021/03/06 06:49:16;;;;;;;13.13;4.70;;;-1.60;99.90;;;;;;5067315;28;20224;-82
2021/03/06 06:52:03;;;;;;;8.20;4.23;;;-1.60;99.90;;;;;;5085724;28;20239;-79
2021/03/06 06:54:32;;;;;;;5.57;3.70;;;-1.60;99.90;;;;;;5086380;28;20220;-82
2021/03/06 06:57:13;;;;;;;4.60;3.67;;;-1.50;99.90;;;;;;5067434;28;20209;-84
2021/03/06 06:59:40;;;;;;;11.90;4.33;;;-1.50;99.90;;;;;;5065181;28;20254;-84
2021/03/06 07:02:08;;;;;;;8.17;3.67;;;-1.40;99.90;;;;;;5067463;28;20197;-83
2021/03/06 07:04:48;;;;;;;12.27;4.63;;;-1.40;99.90;;;;;;5066449;28;20209;-82
2021/03/06 07:07:16;;;;;;;8.43;3.93;;;-1.40;99.90;;;;;;5067579;28;20204;-83
2021/03/06 07:09:56;;;;;;;8.07;4.10;;;-1.30;99.90;;;;;;5066982;28;20205;-85
2021/03/06 07:12:24;;;;;;;6.93;4.23;;;-1.30;99.90;;;;;;5067916;28;20906;-83
2021/03/06 07:14:51;;;;;;;6.47;4.33;;;-1.20;99.90;;;;;;5065660;28;20201;-83
2021/03/06 07:17:17;;;;;;;7.73;4.20;;;-1.20;99.90;;;;;;5067526;28;20198;-85
2021/03/06 07:19:44;;;;;;;7.03;4.37;;;-1.10;99.90;;;;;;5085820;28;20211;-84
2021/03/06 07:22:12;;;;;;;8.03;3.90;;;-1.10;99.90;;;;;;5079865;28;20208;-84
2021/03/06 07:24:38;;;;;;;8.73;3.93;;;-1.00;99.90;;;;;;5066265;28;20209;-84
2021/03/06 07:27:06;;;;;;;5.67;3.80;;;-0.90;99.90;;;;;;5066357;28;20210;-81
2021/03/06 07:29:33;;;;;;;7.47;3.83;;;-0.80;99.90;;;;;;5079300;28;20983;-82
2021/03/06 07:32:01;;;;;;;6.73;3.83;;;-0.70;99.90;;;;;;5084284;28;20227;-84
2021/03/06 07:34:30;;;;;;;9.57;4.23;;;-0.60;99.90;;;;;;5086537;28;20271;-83
2021/03/06 07:37:02;;;;;;;7.67;4.07;;;-0.50;99.90;;;;;;5072469;28;20205;-85
2021/03/06 07:39:39;;;;;;;6.00;3.83;;;-0.40;99.90;;;;;;5065286;28;20259;-85
2021/03/06 07:42:21;;;;;;;7.07;4.03;;;-0.20;99.90;;;;;;5084940;28;20600;-86
2021/03/06 07:44:51;;;;;;;6.37;3.33;;;-0.10;99.90;;;;;;5084820;28;20208;-84
2021/03/06 07:47:20;;;;;;;6.43;3.63;;;0.00;99.90;;;;;;5085229;28;20189;-85
2021/03/06 07:49:49;;;;;;;4.93;3.40;;;0.10;99.90;;;;;;5087154;28;20236;-86
2021/03/06 07:52:17;;;;;;;9.10;4.23;;;0.20;99.90;;;;;;5072118;28;20593;-85
2021/03/06 07:54:43;;;;;;;6.60;4.27;;;0.40;99.90;;;;;;5079203;28;20216;-85
2021/03/06 07:57:10;;;;;;;9.23;4.13;;;0.50;99.90;;;;;;5089034;28;20201;-84
2021/03/06 07:59:53;;;;;;;6.57;4.10;;;0.60;99.90;;;;;;5089297;28;20212;-84
2021/03/06 08:02:34;;;;;;;7.43;4.47;;;0.70;99.90;;;;;;5088864;28;20208;-87
2021/03/06 08:05:01;;;;;;;8.07;4.17;;;0.80;99.90;;;;;;5093244;28;20515;-86
2021/03/06 08:07:45;;;;;;;10.23;5.70;;;0.80;99.90;;;;;;5095450;28;20212;-84
2021/03/06 08:10:13;;;;;;;10.20;5.50;;;0.90;99.90;;;;;;5077150;28;20594;-83
2021/03/06 08:12:41;;;;;;;8.83;5.67;;;1.00;99.90;;;;;;5070272;28;20231;-88
2021/03/06 08:15:27;;;;;;;9.80;6.77;;;1.20;99.90;;;;;;5080463;28;20223;-86
2021/03/06 08:17:54;;;;;;;15.30;6.40;;;1.40;99.90;;;;;;5069795;22;20234;-82
2021/03/06 08:20:31;;;;;;;11.83;7.20;;;1.50;99.90;;;;;;5031274;28;20296;-81
2021/03/06 08:23:20;;;;;;;10.93;6.47;;;1.60;99.90;;;;;;5031737;28;20595;-85
2021/03/06 08:25:48;;;;;;;7.20;5.93;;;1.70;99.90;;;;;;5017706;28;20269;-82
2021/03/06 08:28:26;;;;;;;7.80;5.33;;;1.80;99.90;;;;;;5030945;28;20203;-85
2021/03/06 08:30:54;;;;;;;9.23;5.40;;;1.90;99.90;;;;;;5031863;28;20256;-85
2021/03/06 08:33:21;;;;;;;10.50;6.00;;;2.00;99.90;;;;;;5031870;28;20746;-83
2021/03/06 08:35:47;;;;;;;11.67;6.17;;;2.20;99.90;;;;;;5017753;28;20261;-80
2021/03/06 08:38:28;;;;;;;9.40;5.83;;;2.30;99.90;;;;;;5011415;28;20885;-85
2021/03/06 08:40:55;;;;;;;9.93;6.87;;;2.40;99.90;;;;;;5011324;28;20199;-85
2021/03/06 08:43:22;;;;;;;11.63;6.97;;;2.60;99.90;;;;;;5010940;28;20207;-81
2021/03/06 08:45:49;;;;;;;14.93;8.13;;;2.70;99.90;;;;;;5026107;28;20210;-84
2021/03/06 08:48:22;;;;;;;14.47;8.00;;;2.80;99.90;;;;;;5004753;28;20195;-85
2021/03/06 08:50:49;;;;;;;12.63;7.53;;;3.00;99.90;;;;;;5028613;28;20223;-83
2021/03/06 08:53:16;;;;;;;9.03;6.80;;;3.10;99.90;;;;;;5016179;28;20258;-83
2021/03/06 08:55:44;;;;;;;9.13;6.77;;;3.30;99.90;;;;;;5029064;28;20222;-84
2021/03/06 08:58:12;;;;;;;10.63;6.00;;;3.40;99.90;;;;;;5022296;28;20584;-84
2021/03/06 09:00:40;;;;;;;9.23;5.87;;;3.50;99.90;;;;;;5026179;28;20800;-83
2021/03/06 09:03:16;;;;;;;8.83;6.67;;;3.70;99.90;;;;;;5011265;28;20507;-83
2021/03/06 09:05:44;;;;;;;6.90;5.47;;;3.70;99.90;;;;;;5028349;28;20205;-83
2021/03/06 09:08:11;;;;;;;7.17;4.23;;;3.80;99.90;;;;;;5027692;28;20909;-84
2021/03/06 09:10:40;;;;;;;10.30;4.77;;;3.90;99.90;;;;;;5001701;28;20270;-82
2021/03/06 09:13:11;;;;;;;10.37;4.60;;;4.10;99.90;;;;;;5008695;28;20231;-83
2021/03/06 09:15:46;;;;;;;7.27;4.13;;;4.10;99.90;;;;;;5007723;28;20254;-83
2021/03/06 09:18:15;;;;;;;6.13;3.57;;;4.20;99.90;;;;;;5008284;28;20243;-84
2021/03/06 09:20:54;;;;;;;5.37;2.93;;;4.30;99.90;;;;;;5008258;28;20233;-83
2021/03/06 09:23:39;;;;;;;5.60;2.67;;;4.40;99.90;;;;;;5006667;28;20206;-83
2021/03/06 09:26:09;;;;;;;4.77;1.87;;;4.50;99.90;;;;;;5007852;28;20223;-83
2021/03/06 09:28:36;;;;;;;6.23;1.90;;;4.60;99.90;;;;;;5006500;28;20627;-83
2021/03/06 09:31:04;;;;;;;4.60;1.83;;;4.70;99.90;;;;;;5007584;28;20241;-82
2021/03/06 09:33:34;;;;;;;2.73;0.90;;;4.70;99.90;;;;;;5006164;28;20202;-83
2021/03/06 09:36:07;;;;;;;4.80;0.83;;;4.80;99.90;;;;;;5018485;28;20243;-83
2021/03/06 09:38:34;;;;;;;2.17;1.23;;;4.90;99.90;;;;;;5028539;28;20479;-83
2021/03/06 09:41:01;;;;;;;3.83;1.17;;;4.90;99.90;;;;;;5028392;28;20195;-84
2021/03/06 09:43:30;;;;;;;6.43;2.20;;;5.00;99.90;;;;;;5027529;28;20217;-83
2021/03/06 09:45:58;;;;;;;6.20;1.67;;;5.10;99.90;;;;;;5025142;28;20506;-84
2021/03/06 09:48:25;;;;;;;2.40;1.40;;;5.20;99.90;;;;;;5015529;28;20293;-84
2021/03/06 09:50:55;;;;;;;5.63;2.60;;;5.20;99.90;;;;;;5007646;28;20705;-83
2021/03/06 09:53:22;;;;;;;5.67;2.73;;;5.40;99.90;;;;;;5005866;28;20230;-83
2021/03/06 09:56:02;;;;;;;6.27;3.37;;;5.50;99.90;;;;;;5006690;28;20211;-83
2021/03/06 09:58:29;;;;;;;7.07;2.50;;;5.50;99.90;;;;;;5006325;28;20207;-82
2021/03/06 10:01:12;;;;;;;10.13;2.93;;;5.50;99.90;;;;;;5013087;28;20198;-83
2021/03/06 10:03:38;;;;;;;3.50;1.50;;;5.60;99.90;;;;;;5025029;28;20225;-82
2021/03/06 10:06:08;;;;;;;3.73;2.20;;;5.70;99.90;;;;;;5020354;28;20215;-83
2021/03/06 10:08:39;;;;;;;7.30;1.80;;;5.80;99.90;;;;;;5008420;28;20207;-83
2021/03/06 10:11:07;;;;;;;7.57;1.60;;;5.80;99.90;;;;;;5008628;28;20217;-82
2021/03/06 10:13:34;;;;;;;2.93;1.50;;;5.90;99.90;;;;;;5025343;28;20194;-83
2021/03/06 10:16:03;;;;;;;3.67;1.63;;;5.90;99.90;;;;;;5010261;28;20596;-80
2021/03/06 10:18:37;;;;;;;1.73;0.93;;;5.90;99.90;;;;;;5005106;28;20530;-82
2021/03/06 10:21:11;;;;;;;1.53;1.00;;;6.00;99.90;;;;;;5006742;28;20199;-79
2021/03/06 10:23:38;;;;;;;2.93;0.70;;;6.10;99.90;;;;;;5024994;28;20197;-81
2021/03/06 10:26:14;;;;;;;1.80;1.23;;;6.20;99.90;;;;;;5021488;28;20214;-80
2021/03/06 10:28:41;;;;;;;2.30;1.10;;;6.30;99.90;;;;;;5014819;28;20207;-80
2021/03/06 10:31:28;;;;;;;2.30;0.90;;;6.40;99.90;;;;;;5007641;28;20515;-82
2021/03/06 10:33:55;;;;;;;2.10;1.17;;;6.50;99.90;;;;;;5008208;28;20206;-87
2021/03/06 10:36:22;;;;;;;2.17;1.10;;;6.60;99.90;;;;;;5007892;28;20203;-81
2021/03/06 10:38:48;;;;;;;3.47;1.40;;;6.80;99.90;;;;;;5026166;28;20218;-84
2021/03/06 10:41:16;;;;;;;3.67;1.03;;;6.90;99.90;;;;;;5028317;28;20261;-83
2021/03/06 10:43:44;;;;;;;1.00;0.90;;;7.00;99.90;;;;;;5025880;28;20294;-85
2021/03/06 10:46:15;;;;;;;2.00;0.80;;;7.10;99.90;;;;;;5025891;28;20221;-81
2021/03/06 10:48:42;;;;;;;4.33;0.97;;;7.30;99.90;;;;;;5028746;28;20673;-84
2021/03/06 10:51:09;;;;;;;3.70;1.13;;;7.40;99.90;;;;;;5025440;28;20686;-81
2021/03/06 10:53:37;;;;;;;1.03;0.70;;;7.50;99.90;;;;;;5026339;28;20238;-81
2021/03/06 10:56:06;;;;;;;1.40;0.90;;;7.50;99.90;;;;;;5027520;28;20207;-83
2021/03/06 10:58:44;;;;;;;2.93;0.80;;;7.50;99.90;;;;;;5026826;28;20210;-80
2021/03/06 11:01:12;;;;;;;3.20;0.80;;;7.50;99.90;;;;;;5026912;28;20202;-82
2021/03/06 11:03:42;;;;;;;1.20;0.50;;;7.60;99.90;;;;;;5016711;28;20211;-80
2021/03/06 11:06:09;;;;;;;1.67;0.73;;;7.70;99.90;;;;;;5012449;28;20233;-81
2021/03/06 11:08:37;;;;;;;2.10;0.80;;;7.70;99.90;;;;;;5023365;28;20206;-80
2021/03/06 11:11:04;;;;;;;2.73;0.83;;;7.90;99.90;;;;;;5026064;28;20264;-81
2021/03/06 11:13:42;;;;;;;3.53;0.90;;;7.90;99.90;;;;;;5025258;28;20285;-81
2021/03/06 11:16:08;;;;;;;1.03;0.80;;;8.00;99.90;;;;;;5025416;28;20943;-82
2021/03/06 11:18:37;;;;;;;2.57;0.87;;;8.20;99.90;;;;;;5006344;28;20246;-81
2021/03/06 11:21:05;;;;;;;1.93;0.77;;;8.50;99.90;;;;;;5004810;28;20215;-82
2021/03/06 11:23:33;;;;;;;2.90;0.90;;;8.60;99.90;;;;;;5005578;28;20211;-81
2021/03/06 11:26:00;;;;;;;1.97;0.80;;;8.50;99.90;;;;;;5005249;28;20215;-81
2021/03/06 11:28:27;;;;;;;2.10;0.70;;;8.30;99.90;;;;;;5005714;28;20199;-80
2021/03/06 11:30:53;;;;;;;3.23;1.10;;;8.20;99.90;;;;;;5006230;28;20295;-83
2021/03/06 11:33:20;;;;;;;2.97;0.93;;;8.10;99.90;;;;;;5005331;28;20239;-82
2021/03/06 11:35:48;;;;;;;1.00;0.60;;;8.00;99.90;;;;;;5005015;28;20206;-81
2021/03/06 11:38:16;;;;;;;2.93;0.70;;;8.20;99.90;;;;;;5007225;28;20554;-82
2021/03/06 11:40:44;;;;;;;1.80;1.00;;;8.10;99.90;;;;;;5008365;28;20211;-83
2021/03/06 11:43:12;;;;;;;2.33;0.60;;;8.20;99.90;;;;;;5010407;28;20270;-83
2021/03/06 11:45:39;;;;;;;2.33;0.90;;;8.30;99.90;;;;;;5019400;28;20206;-81
2021/03/06 11:48:07;;;;;;;1.43;0.40;;;8.30;99.90;;;;;;5026946;28;20203;-83
2021/03/06 11:50:35;;;;;;;1.57;0.40;;;8.30;99.90;;;;;;5025537;28;20215;-84
2021/03/06 11:53:03;;;;;;;2.97;0.40;;;8.40;99.90;;;;;;5027339;28;20222;-79
2021/03/06 11:55:29;;;;;;;2.77;0.67;;;8.50;99.90;;;;;;5026000;28;20213;-81
2021/03/06 11:57:56;;;;;;;0.63;0.40;;;8.60;99.90;;;;;;5026083;28;20209;-81
2021/03/06 12:00:24;;;;;;;2.20;0.60;;;8.60;99.90;;;;;;5025852;28;20210;-82
2021/03/06 12:02:51;;;;;;;1.30;0.80;;;8.70;99.90;;;;;;5025975;28;20210;-82
2021/03/06 12:05:18;;;;;;;0.93;0.53;;;8.70;99.90;;;;;;5026485;28;20209;-80
2021/03/06 12:07:46;;;;;;;1.33;0.50;;;8.70;99.90;;;;;;5025561;28;20256;-82
2021/03/06 12:10:16;;;;;;;1.33;0.60;;;8.70;99.90;;;;;;5025927;28;20202;-82
2021/03/06 12:12:44;;;;;;;0.60;0.50;;;8.60;99.90;;;;;;5026345;28;20321;-77
2021/03/06 12:15:12;;;;;;;1.70;0.60;;;8.60;99.90;;;;;;5011670;28;20211;-79
2021/03/06 12:17:40;;;;;;;4.40;0.90;;;8.70;99.90;;;;;;5005910;28;20234;-78
2021/03/06 12:20:07;;;;;;;2.57;1.20;;;8.70;99.90;;;;;;5006644;28;20198;-79
2021/03/06 12:22:34;;;;;;;2.53;0.90;;;8.70;99.90;;;;;;5007399;28;20219;-79
2021/03/06 12:25:00;;;;;;;2.60;0.80;;;8.80;99.90;;;;;;5007290;28;20199;-79
2021/03/06 12:27:27;;;;;;;2.83;0.90;;;8.70;99.90;;;;;;5005960;28;20208;-79
2021/03/06 12:29:53;;;;;;;3.13;0.77;;;8.70;99.90;;;;;;5005651;28;20630;-80
2021/03/06 12:32:20;;;;;;;3.03;0.97;;;8.80;99.90;;;;;;5009011;28;20268;-80
2021/03/06 12:34:47;;;;;;;2.63;1.13;;;8.80;99.90;;;;;;5014980;28;20347;-81
2021/03/06 12:37:13;;;;;;;3.37;1.83;;;8.80;99.90;;;;;;5028465;28;20209;-80
2021/03/06 12:39:39;;;;;;;3.47;1.40;;;8.70;99.90;;;;;;5012576;28;20215;-81
2021/03/06 12:42:06;;;;;;;3.17;0.80;;;8.60;99.90;;;;;;5009385;28;20203;-80
2021/03/06 12:44:33;;;;;;;2.90;0.90;;;8.60;99.90;;;;;;5010688;28;20206;-81
2021/03/06 12:46:59;;;;;;;2.13;0.70;;;8.50;99.90;;;;;;5026368;28;20203;-78
2021/03/06 12:49:26;;;;;;;3.00;0.80;;;8.40;99.90;;;;;;5025221;28;20222;-79
2021/03/06 12:51:53;;;;;;;3.27;0.80;;;8.40;99.90;;;;;;5015641;28;20626;-77
2021/03/06 12:54:22;;;;;;;2.70;0.80;;;8.40;99.90;;;;;;5004818;28;20204;-77
2021/03/06 12:56:48;;;;;;;2.20;0.70;;;8.40;99.90;;;;;;5004251;28;20231;-76
2021/03/06 12:59:14;;;;;;;3.40;0.70;;;8.40;99.90;;;;;;5004152;28;20203;-76